Time;durP1;ratioP1;P1;durP2;ratioP2;P2;SDS_P1;SDS_P2;PMS_P1;PMS_P2;Temp;Humidity;BMP_temperature;BMP_pressure;BME280_temperature;BME280_humidity;BME280_pressure;Samples;Min_cycle;Max_cycle;Signal;HPM_P1;HPM_P2
2021/06/13 00:02:10;;;;;;;22.17;7.13;;;11.00;99.90;;;;;;4755334;30;20139;-90
2021/06/13 00:04:36;;;;;;;14.48;5.53;;;11.00;99.90;;;;;;4785167;30;20477;-92
2021/06/13 00:07:03;;;;;;;14.55;6.63;;;10.90;99.90;;;;;;4785272;30;20792;-89
2021/06/13 00:09:29;;;;;;;22.95;5.47;;;10.90;99.90;;;;;;4785176;30;20091;-90
2021/06/13 00:11:55;;;;;;;18.92;5.50;;;11.00;99.90;;;;;;4799537;29;20043;-91
2021/06/13 00:14:22;;;;;;;22.48;5.00;;;11.00;99.90;;;;;;4785188;30;20044;-92
2021/06/13 00:16:48;;;;;;;20.60;4.95;;;11.10;99.90;;;;;;4785935;29;20083;-90
2021/06/13 00:19:14;;;;;;;22.60;5.03;;;11.20;99.90;;;;;;4785784;29;20081;-91
2021/06/13 00:21:40;;;;;;;15.55;4.35;;;11.40;99.90;;;;;;4785970;29;20545;-92
2021/06/13 00:24:07;;;;;;;11.32;3.60;;;11.50;99.90;;;;;;4770901;30;20051;-91
2021/06/13 00:26:33;;;;;;;18.20;4.00;;;11.60;99.90;;;;;;4786666;29;20520;-92
2021/06/13 00:28:59;;;;;;;13.02;4.35;;;11.70;99.90;;;;;;4788445;30;20079;-91
2021/06/13 00:31:25;;;;;;;22.33;4.57;;;11.80;99.90;;;;;;4788985;30;20043;-91
2021/06/13 00:33:51;;;;;;;18.67;5.72;;;11.80;99.90;;;;;;4771051;30;20444;-91
2021/06/13 00:36:17;;;;;;;20.33;5.65;;;11.60;99.90;;;;;;4767703;30;20055;-92
2021/06/13 00:38:43;;;;;;;22.20;6.32;;;11.50;99.90;;;;;;4788227;30;20043;-91
2021/06/13 00:41:10;;;;;;;20.55;5.97;;;11.30;99.90;;;;;;4788430;30;20512;-94
2021/06/13 00:43:36;;;;;;;13.80;5.40;;;11.10;99.90;;;;;;4789070;30;20457;-93
2021/06/13 00:46:02;;;;;;;22.27;6.13;;;11.00;99.90;;;;;;4788583;30;20133;-91
2021/06/13 00:48:28;;;;;;;17.05;6.18;;;10.90;99.90;;;;;;4803738;29;20117;-92
2021/06/13 00:50:55;;;;;;;18.30;6.05;;;10.90;99.90;;;;;;4788514;30;20138;-90
2021/06/13 00:53:21;;;;;;;24.10;6.15;;;10.80;99.90;;;;;;4788316;30;20051;-90
2021/06/13 00:55:48;;;;;;;22.42;6.43;;;10.70;99.90;;;;;;4803055;29;20047;-90
2021/06/13 00:58:13;;;;;;;19.20;6.15;;;10.70;99.90;;;;;;4788617;30;20055;-91
2021/06/13 01:00:42;;;;;;;18.92;6.25;;;10.60;99.90;;;;;;4772483;30;20103;-90
2021/06/13 01:03:09;;;;;;;18.17;6.10;;;10.60;99.90;;;;;;4788037;30;20047;-89
2021/06/13 01:05:34;;;;;;;20.40;5.93;;;10.50;99.90;;;;;;4788147;30;20417;-91
2021/06/13 01:08:18;;;;;;;18.98;5.82;;;10.50;99.90;;;;;;4787993;30;20051;-90
2021/06/13 01:10:49;;;;;;;15.75;6.40;;;10.40;99.90;;;;;;4789117;29;20062;-91
2021/06/13 01:13:33;;;;;;;26.77;6.75;;;10.40;99.90;;;;;;4802921;29;20107;-90
2021/06/13 01:16:23;;;;;;;22.88;6.32;;;10.40;99.90;;;;;;4787626;30;20043;-91
2021/06/13 01:18:53;;;;;;;24.05;6.70;;;10.30;99.90;;;;;;4788136;30;20062;-91
2021/06/13 01:21:34;;;;;;;16.67;6.43;;;10.30;99.90;;;;;;4788142;30;20070;-93
2021/06/13 01:24:42;;;;;;;23.55;7.13;;;10.20;99.90;;;;;;4803076;29;20043;-92
2021/06/13 01:27:41;;;;;;;23.45;8.00;;;10.20;99.90;;;;;;4778695;30;20059;-92
2021/06/13 01:30:08;;;;;;;21.58;8.23;;;10.10;99.90;;;;;;4785981;29;20067;-91
2021/06/13 01:32:35;;;;;;;19.23;6.85;;;10.00;99.90;;;;;;4773544;30;20046;-92
2021/06/13 01:35:14;;;;;;;26.10;6.97;;;10.00;99.90;;;;;;4787452;30;20154;-91
2021/06/13 01:37:43;;;;;;;19.65;7.00;;;10.00;99.90;;;;;;4787949;29;20202;-93
2021/06/13 01:40:11;;;;;;;18.37;6.37;;;9.90;99.90;;;;;;4788028;30;20073;-92
2021/06/13 01:42:40;;;;;;;28.67;7.32;;;9.90;99.90;;;;;;4802930;29;20051;-92
2021/06/13 01:45:10;;;;;;;22.90;6.38;;;9.90;99.90;;;;;;4788683;29;20055;-92
2021/06/13 01:47:37;;;;;;;23.65;6.63;;;9.90;99.90;;;;;;4802870;29;20134;-90
2021/06/13 01:50:05;;;;;;;17.05;6.05;;;9.90;99.90;;;;;;4771292;30;20051;-91
2021/06/13 01:52:33;;;;;;;19.35;6.30;;;9.80;99.90;;;;;;4769771;30;20075;-91
2021/06/13 01:54:59;;;;;;;20.42;6.20;;;9.80;99.90;;;;;;4787325;30;20055;-91
2021/06/13 01:57:26;;;;;;;27.08;6.90;;;9.80;99.90;;;;;;4787535;30;20055;-91
2021/06/13 01:59:55;;;;;;;19.25;6.30;;;9.80;99.90;;;;;;4801979;29;20054;-91
2021/06/13 02:02:23;;;;;;;20.15;7.05;;;9.80;99.90;;;;;;4787473;30;20071;-91
2021/06/13 02:04:49;;;;;;;26.33;6.30;;;9.80;99.90;;;;;;4787515;29;20404;-91
2021/06/13 02:07:18;;;;;;;21.40;7.35;;;9.70;99.90;;;;;;4787246;30;20400;-92
2021/06/13 02:09:46;;;;;;;19.55;7.32;;;9.70;99.90;;;;;;4787117;30;20063;-93
2021/06/13 02:12:13;;;;;;;16.58;7.22;;;9.70;99.90;;;;;;4788211;29;20047;-90
2021/06/13 02:14:43;;;;;;;23.35;7.50;;;9.60;99.90;;;;;;4788213;29;20047;-90
2021/06/13 02:17:09;;;;;;;;;;;9.60;99.90;;;;;;4801954;29;20497;-91
2021/06/13 02:19:36;;;;;;;21.58;8.45;;;9.60;99.90;;;;;;4772365;30;19932;-90
2021/06/13 02:22:03;;;;;;;27.35;7.90;;;9.60;99.90;;;;;;4772042;30;20377;-90
2021/06/13 02:24:33;;;;;;;22.23;6.90;;;9.70;99.90;;;;;;4788197;30;20047;-90
2021/06/13 02:27:01;;;;;;;22.23;6.43;;;9.60;99.90;;;;;;4801528;29;20938;-90
2021/06/13 02:29:28;;;;;;;24.00;7.47;;;9.60;99.90;;;;;;4771726;30;20075;-91
2021/06/13 02:31:56;;;;;;;21.63;7.43;;;9.60;99.90;;;;;;4787231;29;20120;-91
2021/06/13 02:34:25;;;;;;;28.65;8.43;;;9.70;99.90;;;;;;4771974;30;20051;-91
2021/06/13 02:36:53;;;;;;;21.52;7.47;;;9.60;99.90;;;;;;4786394;30;20050;-91
2021/06/13 02:39:21;;;;;;;22.17;7.22;;;9.60;99.90;;;;;;4801939;29;20058;-90
2021/06/13 02:41:48;;;;;;;24.05;7.47;;;9.60;99.90;;;;;;4786375;30;20043;-92
2021/06/13 02:44:14;;;;;;;26.42;8.00;;;9.60;99.90;;;;;;4787730;29;20540;-92
2021/06/13 02:46:40;;;;;;;19.35;7.20;;;9.60;99.90;;;;;;4782358;30;20478;-92
2021/06/13 02:49:10;;;;;;;19.73;7.03;;;9.70;99.90;;;;;;4786149;29;20055;-91
2021/06/13 02:51:37;;;;;;;;;;;9.70;99.90;;;;;;4787834;29;20051;-91
2021/06/13 02:54:07;;;;;;;17.92;6.40;;;9.60;99.90;;;;;;4771601;30;19956;-90
2021/06/13 02:56:45;;;;;;;18.00;7.27;;;9.60;99.90;;;;;;4783945;30;20047;-93
2021/06/13 02:59:30;;;;;;;29.08;7.82;;;9.60;99.90;;;;;;4781948;30;20325;-92
2021/06/13 03:01:58;;;;;;;20.50;7.07;;;9.60;99.90;;;;;;4800723;29;20047;-91
2021/06/13 03:04:24;;;;;;;18.98;7.13;;;9.60;99.90;;;;;;4787875;29;20134;-92
2021/06/13 03:06:54;;;;;;;33.00;8.25;;;9.60;99.90;;;;;;4771172;30;20075;-92
2021/06/13 03:09:22;;;;;;;20.85;7.63;;;9.60;99.90;;;;;;4786701;30;20050;-90
2021/06/13 03:11:48;;;;;;;26.85;7.93;;;9.60;99.90;;;;;;4801034;29;20090;-94
2021/06/13 03:14:15;;;;;;;27.98;8.13;;;9.60;99.90;;;;;;4785998;30;20054;-90
2021/06/13 03:16:43;;;;;;;24.58;7.82;;;9.50;99.90;;;;;;4786909;29;20104;-90
2021/06/13 03:19:11;;;;;;;25.55;7.75;;;9.50;99.90;;;;;;4785914;29;20059;-92
2021/06/13 03:21:39;;;;;;;19.10;8.55;;;9.50;99.90;;;;;;4786603;30;20075;-92
2021/06/13 03:24:06;;;;;;;32.85;9.05;;;9.50;99.90;;;;;;4786234;29;20588;-92
2021/06/13 03:26:34;;;;;;;27.95;7.85;;;9.60;99.90;;;;;;4787427;29;20063;-90
2021/06/13 03:29:02;;;;;;;21.90;8.82;;;9.60;99.90;;;;;;4770988;30;20067;-91
2021/06/13 03:31:28;;;;;;;23.65;7.53;;;9.60;99.90;;;;;;4785772;30;20059;-91
2021/06/13 03:33:55;;;;;;;32.50;8.38;;;9.50;99.90;;;;;;4785598;30;20089;-91
2021/06/13 03:36:22;;;;;;;22.40;7.35;;;9.60;99.90;;;;;;4786067;30;20183;-91
2021/06/13 03:38:51;;;;;;;28.65;7.55;;;9.70;99.90;;;;;;4800922;29;20051;-91
2021/06/13 03:41:18;;;;;;;23.45;7.28;;;9.60;99.90;;;;;;4786966;29;20047;-91
2021/06/13 03:43:46;;;;;;;21.20;6.82;;;9.70;99.90;;;;;;4771267;30;20569;-92
2021/06/13 03:46:13;;;;;;;32.83;8.43;;;9.70;99.90;;;;;;4785609;30;20051;-91
2021/06/13 03:48:41;;;;;;;23.98;7.53;;;9.70;99.90;;;;;;4785778;30;20047;-91
2021/06/13 03:51:08;;;;;;;17.55;6.78;;;9.60;99.90;;;;;;4786445;29;20051;-91
2021/06/13 03:53:46;;;;;;;20.98;8.10;;;9.70;99.90;;;;;;4786717;30;20056;-91
2021/06/13 03:56:17;;;;;;;22.73;7.47;;;9.60;99.90;;;;;;4785663;30;20768;-91
2021/06/13 03:58:45;;;;;;;20.85;7.90;;;9.60;99.90;;;;;;4771193;30;20039;-91
2021/06/13 04:01:12;;;;;;;24.90;7.90;;;9.60;99.90;;;;;;4770366;30;20078;-90
2021/06/13 04:03:41;;;;;;;20.70;7.65;;;9.60;99.90;;;;;;4788960;30;20073;-90
2021/06/13 04:06:08;;;;;;;26.45;7.70;;;9.60;99.90;;;;;;4789170;30;20077;-91
2021/06/13 04:08:37;;;;;;;22.33;7.25;;;9.70;99.90;;;;;;4789345;30;20130;-91
2021/06/13 04:11:04;;;;;;;28.92;8.15;;;9.70;99.90;;;;;;4788881;30;20051;-91
2021/06/13 04:13:32;;;;;;;29.27;7.90;;;9.80;99.90;;;;;;4804259;29;20071;-90
2021/06/13 04:15:59;;;;;;;21.85;7.40;;;9.90;99.90;;;;;;4788776;30;20051;-91
2021/06/13 04:18:26;;;;;;;21.20;7.13;;;9.90;99.90;;;;;;4790208;29;20058;-92
2021/06/13 04:20:52;;;;;;;69.78;9.77;;;9.90;99.90;;;;;;4789165;29;20043;-93
2021/06/13 04:23:18;;;;;;;22.13;7.65;;;9.90;99.90;;;;;;4774350;30;20489;-91
2021/06/13 04:25:44;;;;;;;22.77;7.88;;;9.90;99.90;;;;;;4774524;30;20069;-92
2021/06/13 04:28:15;;;;;;;33.15;8.30;;;10.00;99.90;;;;;;4773920;30;20048;-91
2021/06/13 04:30:41;;;;;;;;;;;10.00;99.90;;;;;;4790988;29;20120;-91
2021/06/13 04:33:09;;;;;;;17.20;6.95;;;10.10;99.90;;;;;;4788689;30;19925;-92
2021/06/13 04:35:35;;;;;;;24.00;7.47;;;10.10;99.90;;;;;;4789198;30;20082;-91
2021/06/13 04:38:01;;;;;;;18.88;7.60;;;10.10;99.90;;;;;;4788145;29;20489;-91
2021/06/13 04:40:27;;;;;;;21.63;7.53;;;10.20;99.90;;;;;;4788959;30;20058;-90
2021/06/13 04:42:52;;;;;;;24.77;7.82;;;10.20;99.90;;;;;;4788596;29;20047;-94
2021/06/13 04:45:18;;;;;;;18.48;7.30;;;10.20;99.90;;;;;;4773577;30;20493;-91
2021/06/13 04:47:44;;;;;;;27.58;8.13;;;10.30;99.90;;;;;;4788856;29;20064;-91
2021/06/13 04:50:11;;;;;;;18.40;7.28;;;10.30;99.90;;;;;;4773982;30;20500;-93
2021/06/13 04:52:39;;;;;;;19.58;7.30;;;10.30;99.90;;;;;;4772308;30;20549;-92
2021/06/13 04:55:35;;;;;;;29.95;7.85;;;10.40;99.90;;;;;;4801382;29;20134;-93
2021/06/13 04:58:06;;;;;;;23.05;7.85;;;10.50;99.90;;;;;;4786758;29;20088;-91
2021/06/13 05:00:32;;;;;;;21.00;7.57;;;10.50;99.90;;;;;;4787434;30;20051;-93
2021/06/13 05:02:58;;;;;;;19.83;6.97;;;10.60;99.90;;;;;;4771840;30;20047;-94
2021/06/13 05:05:24;;;;;;;21.20;7.22;;;10.60;99.90;;;;;;4772506;30;20466;-94
2021/06/13 05:07:50;;;;;;;26.48;7.43;;;10.70;99.90;;;;;;4789054;29;20075;-94
2021/06/13 05:10:16;;;;;;;20.70;7.43;;;10.80;99.90;;;;;;4788034;30;20054;-93
2021/06/13 05:12:50;;;;;;;26.60;7.68;;;10.90;99.90;;;;;;4803377;29;20054;-92
2021/06/13 05:15:17;;;;;;;28.38;7.30;;;10.90;99.90;;;;;;4788372;30;20043;-93
2021/06/13 05:17:43;;;;;;;17.60;6.90;;;11.00;99.90;;;;;;4790001;29;20094;-93
2021/06/13 05:20:10;;;;;;;19.80;7.35;;;11.10;99.90;;;;;;4789226;30;20043;-93
2021/06/13 05:22:53;;;;;;;24.67;7.18;;;11.20;99.90;;;;;;4774364;30;20052;-92
2021/06/13 05:25:19;;;;;;;27.52;8.32;;;11.20;99.90;;;;;;4804505;29;20047;-92
2021/06/13 05:27:44;;;;;;;21.83;7.40;;;11.40;99.90;;;;;;4773313;30;20484;-91
2021/06/13 05:30:11;;;;;;;20.88;7.30;;;11.40;99.90;;;;;;4787468;30;20063;-92
2021/06/13 05:32:37;;;;;;;15.93;6.78;;;11.50;99.90;;;;;;4787841;30;20055;-92
2021/06/13 05:35:04;;;;;;;25.52;6.85;;;11.70;99.90;;;;;;4787632;29;20477;-91
2021/06/13 05:37:30;;;;;;;21.70;7.13;;;11.80;99.90;;;;;;4788142;30;20058;-92
2021/06/13 05:39:58;;;;;;;19.80;5.88;;;11.90;99.90;;;;;;4788200;30;20043;-93
2021/06/13 05:42:24;;;;;;;16.65;6.97;;;11.90;99.90;;;;;;4759437;30;20055;-93
2021/06/13 05:44:50;;;;;;;16.30;6.38;;;12.10;99.90;;;;;;4788449;30;20130;-93
2021/06/13 05:47:15;;;;;;;16.85;5.78;;;12.20;99.90;;;;;;4758536;30;20082;-93
2021/06/13 05:49:41;;;;;;;22.63;6.93;;;12.20;99.90;;;;;;4773798;30;20090;-94
2021/06/13 05:52:07;;;;;;;17.42;6.22;;;12.30;99.90;;;;;;4773289;30;20048;-93
2021/06/13 05:54:38;;;;;;;16.92;5.40;;;12.40;99.90;;;;;;4773687;30;20459;-93
2021/06/13 05:57:05;;;;;;;14.63;5.30;;;12.50;99.90;;;;;;4788858;29;20055;-93
2021/06/13 05:59:31;;;;;;;17.55;5.88;;;12.60;99.90;;;;;;4773377;30;20051;-93
2021/06/13 06:01:56;;;;;;;14.93;5.47;;;12.70;99.90;;;;;;4787673;30;20147;-92
2021/06/13 06:04:22;;;;;;;19.60;6.45;;;12.80;99.90;;;;;;4787521;30;20082;-92
2021/06/13 06:06:48;;;;;;;20.23;6.60;;;12.80;99.90;;;;;;4787757;30;20055;-92
2021/06/13 06:09:14;;;;;;;17.80;6.55;;;12.80;99.90;;;;;;4787195;30;20067;-91
2021/06/13 06:11:42;;;;;;;23.65;6.32;;;12.90;99.90;;;;;;4787697;30;20482;-92
2021/06/13 06:14:09;;;;;;;19.52;5.82;;;13.00;99.90;;;;;;4787244;30;20059;-92
2021/06/13 06:16:35;;;;;;;23.45;6.78;;;13.10;99.90;;;;;;4788641;30;20148;-91
2021/06/13 06:19:01;;;;;;;21.20;6.35;;;13.20;99.90;;;;;;4788759;29;20062;-94
2021/06/13 06:21:27;;;;;;;19.35;5.55;;;13.30;99.90;;;;;;4787848;30;20054;-91
2021/06/13 06:23:54;;;;;;;16.40;6.78;;;13.30;99.90;;;;;;4758472;29;20421;-91
2021/06/13 06:26:20;;;;;;;19.88;5.43;;;13.40;99.90;;;;;;4787560;29;20051;-90
2021/06/13 06:28:46;;;;;;;17.30;5.47;;;13.50;99.90;;;;;;4802070;29;20063;-91
2021/06/13 06:31:13;;;;;;;19.33;7.03;;;13.60;99.90;;;;;;4771868;30;20412;-93
2021/06/13 06:33:38;;;;;;;15.90;5.22;;;13.60;99.90;;;;;;4772539;30;20047;-91
2021/06/13 06:36:05;;;;;;;12.15;5.00;;;13.70;99.90;;;;;;4771602;30;20055;-93
2021/06/13 06:38:32;;;;;;;19.65;6.07;;;13.80;99.90;;;;;;4801542;29;20060;-91
2021/06/13 06:40:58;;;;;;;14.43;5.15;;;13.80;99.90;;;;;;4771706;30;20047;-91
2021/06/13 06:43:25;;;;;;;12.65;5.35;;;13.80;99.90;;;;;;4786379;30;20040;-93
2021/06/13 06:45:51;;;;;;;15.68;5.07;;;13.90;99.90;;;;;;4772182;30;20047;-92
2021/06/13 06:48:17;;;;;;;16.17;6.63;;;14.00;99.90;;;;;;4786440;30;20137;-92
2021/06/13 06:50:44;;;;;;;17.17;4.82;;;14.10;99.90;;;;;;4771977;30;20054;-91
2021/06/13 06:53:10;;;;;;;15.75;4.43;;;14.10;99.90;;;;;;4786193;30;20441;-91
2021/06/13 06:55:36;;;;;;;14.30;4.15;;;14.10;99.90;;;;;;4786846;30;20082;-93
2021/06/13 06:58:02;;;;;;;9.63;3.83;;;14.20;99.90;;;;;;4786835;30;20078;-91
2021/06/13 07:00:28;;;;;;;21.67;5.55;;;14.20;99.90;;;;;;4786084;30;20054;-92
2021/06/13 07:02:54;;;;;;;13.93;4.03;;;14.20;99.90;;;;;;4773988;30;20163;-93
2021/06/13 07:05:20;;;;;;;14.13;4.30;;;14.30;99.90;;;;;;4771503;30;20083;-92
2021/06/13 07:07:46;;;;;;;13.52;4.60;;;14.30;99.90;;;;;;4772201;30;20146;-91
2021/06/13 07:10:13;;;;;;;14.90;3.90;;;14.30;99.90;;;;;;4786120;30;20063;-93
2021/06/13 07:12:40;;;;;;;17.63;4.28;;;14.50;99.90;;;;;;4786229;30;20047;-90
2021/06/13 07:15:08;;;;;;;12.35;4.78;;;14.50;99.90;;;;;;4771246;30;20385;-93
2021/06/13 07:17:35;;;;;;;13.82;4.07;;;14.60;99.90;;;;;;4756441;30;20112;-90
2021/06/13 07:20:04;;;;;;;18.20;4.70;;;14.60;99.90;;;;;;4786252;30;20060;-93
2021/06/13 07:22:30;;;;;;;10.20;3.22;;;14.60;99.90;;;;;;4786971;29;20054;-92
2021/06/13 07:24:57;;;;;;;9.35;3.00;;;14.70;99.90;;;;;;4787229;29;20075;-91
2021/06/13 07:27:26;;;;;;;7.43;4.25;;;14.80;99.90;;;;;;4801098;29;20048;-93
2021/06/13 07:29:52;;;;;;;11.30;3.95;;;14.80;99.90;;;;;;4770863;30;20088;-91
2021/06/13 07:32:19;;;;;;;13.13;4.20;;;14.90;99.90;;;;;;4785591;30;20374;-92
2021/06/13 07:34:44;;;;;;;18.85;4.45;;;14.90;99.90;;;;;;4791583;29;20078;-93
2021/06/13 07:37:10;;;;;;;13.77;4.22;;;15.00;99.90;;;;;;4786581;29;20091;-94
2021/06/13 07:39:36;;;;;;;12.70;4.15;;;15.00;99.90;;;;;;4785816;30;20084;-92
2021/06/13 07:42:02;;;;;;;10.77;3.30;;;15.10;99.90;;;;;;4771540;30;20063;-92
2021/06/13 07:44:30;;;;;;;14.38;4.43;;;15.10;99.90;;;;;;4785929;30;20203;-93
2021/06/13 07:46:57;;;;;;;13.52;4.13;;;15.20;99.90;;;;;;4771303;30;20485;-92
2021/06/13 07:49:24;;;;;;;18.17;4.80;;;15.20;99.90;;;;;;4782640;30;20052;-93
2021/06/13 07:51:51;;;;;;;12.63;3.78;;;15.30;99.90;;;;;;4785049;30;20043;-94
2021/06/13 07:54:17;;;;;;;7.47;3.22;;;15.40;99.90;;;;;;4784163;30;20055;-93
2021/06/13 07:56:43;;;;;;;8.27;3.30;;;15.40;99.90;;;;;;4784125;30;20069;-94
2021/06/13 07:59:09;;;;;;;9.80;4.00;;;15.40;99.90;;;;;;4769922;30;20112;-94
2021/06/13 08:01:35;;;;;;;11.90;3.25;;;15.40;99.90;;;;;;4784708;30;20051;-90
2021/06/13 08:04:01;;;;;;;7.75;3.03;;;15.50;99.90;;;;;;4785426;30;20047;-94
2021/06/13 08:06:26;;;;;;;11.55;3.90;;;15.60;99.90;;;;;;4785850;30;20111;-92
2021/06/13 08:08:52;;;;;;;10.90;3.67;;;15.60;99.90;;;;;;4786002;30;20122;-93
2021/06/13 08:11:18;;;;;;;10.70;3.75;;;15.60;99.90;;;;;;4756788;30;20059;-96
2021/06/13 08:13:47;;;;;;;12.32;3.35;;;15.70;99.90;;;;;;4786558;30;20067;-93
2021/06/13 08:16:13;;;;;;;13.15;3.42;;;15.80;99.90;;;;;;4786351;30;20473;-96
2021/06/13 08:18:39;;;;;;;7.57;3.90;;;15.80;99.90;;;;;;4787247;29;20074;-95
2021/06/13 08:21:05;;;;;;;7.65;3.35;;;15.90;99.90;;;;;;4756502;30;20063;-94
2021/06/13 08:23:31;;;;;;;11.57;3.92;;;16.00;99.90;;;;;;4771645;30;20123;-93
2021/06/13 08:25:58;;;;;;;7.15;3.60;;;16.10;99.90;;;;;;4786143;30;20055;-94
2021/06/13 08:28:25;;;;;;;12.18;4.20;;;16.20;99.90;;;;;;4786576;29;20170;-93
2021/06/13 08:30:51;;;;;;;12.65;3.25;;;16.30;99.90;;;;;;4785503;30;20074;-93
2021/06/13 08:33:17;;;;;;;10.63;3.15;;;16.30;99.90;;;;;;4770563;30;20055;-94
2021/06/13 08:35:44;;;;;;;9.82;2.97;;;16.20;99.90;;;;;;4771243;30;20067;-94
2021/06/13 08:38:10;;;;;;;6.70;2.90;;;16.30;99.90;;;;;;4771068;30;20055;-94
2021/06/13 08:40:37;;;;;;;9.40;3.17;;;16.30;99.90;;;;;;4771056;30;20055;-92
2021/06/13 08:43:04;;;;;;;7.82;3.22;;;16.30;99.90;;;;;;4771121;30;20055;-94
2021/06/13 08:45:35;;;;;;;7.90;2.55;;;16.30;99.90;;;;;;4771319;30;20055;-94
2021/06/13 08:48:02;;;;;;;5.45;2.67;;;16.30;99.90;;;;;;4772374;30;20059;-94
2021/06/13 08:50:29;;;;;;;11.07;3.40;;;16.40;99.90;;;;;;4796040;29;20047;-93
2021/06/13 08:52:56;;;;;;;9.80;3.65;;;16.50;99.90;;;;;;4789059;29;20066;-94
2021/06/13 08:55:23;;;;;;;7.85;2.88;;;16.60;99.90;;;;;;4774394;30;20511;-93
2021/06/13 08:57:51;;;;;;;13.07;3.50;;;16.70;99.90;;;;;;4788960;30;20051;-93
2021/06/13 09:00:21;;;;;;;13.40;3.88;;;16.70;99.90;;;;;;4773722;30;20075;-95
2021/06/13 09:02:47;;;;;;;13.20;3.35;;;16.80;99.90;;;;;;4789604;30;20412;-94
2021/06/13 09:05:19;;;;;;;10.85;3.78;;;16.80;99.90;;;;;;4775008;30;20142;-93
2021/06/13 09:07:58;;;;;;;9.60;3.15;;;16.90;99.90;;;;;;4789296;30;20075;-93
2021/06/13 09:10:27;;;;;;;8.63;3.30;;;16.90;99.90;;;;;;4799797;29;20043;-92
2021/06/13 09:13:23;;;;;;;9.73;3.03;;;16.80;99.90;;;;;;4773236;30;20508;-92
2021/06/13 09:15:51;;;;;;;8.95;3.03;;;17.00;99.90;;;;;;4801467;29;20067;-94
2021/06/13 09:18:55;;;;;;;10.65;2.85;;;17.00;99.90;;;;;;4774350;30;20051;-96
2021/06/13 09:21:25;;;;;;;8.45;3.28;;;17.20;99.90;;;;;;4736921;30;20118;-93
2021/06/13 09:23:51;;;;;;;;;;;17.20;99.90;;;;;;4747035;30;20056;-93
2021/06/13 09:26:20;;;;;;;5.82;2.90;;;17.20;99.90;;;;;;4772068;30;20329;-92
2021/06/13 09:28:51;;;;;;;7.47;3.20;;;17.30;99.90;;;;;;4793501;30;20047;-96
2021/06/13 09:31:19;;;;;;;8.10;3.33;;;17.40;99.90;;;;;;4791560;30;20059;-96
2021/06/13 09:33:49;;;;;;;6.53;3.20;;;17.40;99.90;;;;;;4776704;30;20059;-95
2021/06/13 09:36:21;;;;;;;9.18;3.40;;;17.50;99.90;;;;;;4792985;30;20405;-96
2021/06/13 09:39:00;;;;;;;11.82;3.40;;;17.60;99.90;;;;;;4793649;30;20059;-96
2021/06/13 09:41:27;;;;;;;8.73;3.33;;;17.60;99.90;;;;;;4808527;29;20108;-95
2021/06/13 09:43:59;;;;;;;12.50;3.90;;;17.60;99.90;;;;;;4794746;29;20138;-96
2021/06/13 09:46:36;;;;;;;14.77;3.80;;;17.70;99.90;;;;;;4781242;30;20059;-96
2021/06/13 09:49:09;;;;;;;9.23;3.58;;;17.70;99.90;;;;;;4794033;30;20051;-96
2021/06/13 09:51:49;;;;;;;10.10;4.45;;;17.90;99.90;;;;;;4791225;30;20059;-96
2021/06/13 09:54:33;;;;;;;13.95;3.67;;;17.90;99.90;;;;;;4790521;30;20531;-95
2021/06/13 09:57:04;;;;;;;8.73;3.75;;;18.00;99.90;;;;;;4810002;29;20076;-96
2021/06/13 09:59:34;;;;;;;10.68;3.97;;;18.30;99.90;;;;;;4790726;29;20050;-93
2021/06/13 10:02:01;;;;;;;;;;;18.50;99.90;;;;;;4769408;30;20062;-95
2021/06/13 10:04:42;;;;;;;6.47;3.47;;;18.70;99.90;;;;;;4802366;29;19925;-96
2021/06/13 10:07:17;;;;;;;12.80;3.92;;;18.90;99.90;;;;;;4785072;30;20409;-96
2021/06/13 10:09:50;;;;;;;9.73;3.50;;;18.80;99.90;;;;;;4774978;30;20633;-95
2021/06/13 10:12:22;;;;;;;7.80;3.50;;;18.60;99.90;;;;;;4773972;30;20055;-96
2021/06/13 10:15:12;;;;;;;11.18;3.20;;;18.70;99.90;;;;;;4792201;29;20063;-95
2021/06/13 10:17:41;;;;;;;9.52;3.83;;;18.80;99.90;;;;;;4787375;30;20043;-96
2021/06/13 10:20:08;;;;;;;13.38;3.92;;;19.10;99.90;;;;;;4773203;30;20059;-93
2021/06/13 10:22:34;;;;;;;10.20;3.70;;;19.10;99.90;;;;;;4773164;30;20159;-95
2021/06/13 10:25:00;;;;;;;14.10;3.80;;;19.10;99.90;;;;;;4774939;30;20063;-96
2021/06/13 10:27:34;;;;;;;13.50;3.75;;;18.80;99.90;;;;;;4787675;30;20076;-96
2021/06/13 10:30:00;;;;;;;10.40;3.88;;;18.50;99.90;;;;;;4787352;30;20111;-96
2021/06/13 10:32:26;;;;;;;12.25;3.85;;;18.70;99.90;;;;;;4772509;30;20047;-96
2021/06/13 10:34:54;;;;;;;12.45;4.43;;;18.90;99.90;;;;;;4788343;30;20098;-96
2021/06/13 10:37:22;;;;;;;11.20;3.63;;;18.70;99.90;;;;;;4773315;30;20086;-96
2021/06/13 10:39:51;;;;;;;11.20;3.88;;;18.60;99.90;;;;;;4787472;30;20474;-95
2021/06/13 10:42:19;;;;;;;7.90;3.45;;;18.60;99.90;;;;;;4787995;30;20051;-96
2021/06/13 10:44:49;;;;;;;10.68;3.80;;;18.70;99.90;;;;;;4786935;30;20633;-96
2021/06/13 10:47:16;;;;;;;11.43;3.80;;;18.70;99.90;;;;;;4787442;30;20067;-96
2021/06/13 10:49:59;;;;;;;15.13;4.55;;;19.00;99.90;;;;;;4788043;30;20051;-96
2021/06/13 10:52:31;;;;;;;9.18;4.10;;;19.00;99.90;;;;;;4777011;30;20051;-96
2021/06/13 10:55:03;;;;;;;9.07;3.53;;;18.80;99.90;;;;;;4787980;30;20055;-96
2021/06/13 10:57:45;;;;;;;12.43;4.25;;;18.90;99.90;;;;;;4787295;30;20059;-94
2021/06/13 11:00:20;;;;;;;15.60;4.22;;;19.20;99.90;;;;;;4771444;30;20055;-96
2021/06/13 11:02:46;;;;;;;7.85;3.47;;;19.40;99.90;;;;;;4786785;30;20346;-96
2021/06/13 11:05:13;;;;;;;10.75;4.30;;;19.70;99.90;;;;;;4772303;30;20512;-95
2021/06/13 11:07:40;;;;;;;9.65;3.55;;;19.70;99.90;;;;;;4786688;30;20058;-96
2021/06/13 11:10:24;;;;;;;8.07;3.28;;;20.00;99.90;;;;;;4801734;29;20130;-95
2021/06/13 11:12:58;;;;;;;8.10;3.60;;;19.90;99.90;;;;;;4801298;29;20495;-96
2021/06/13 11:15:31;;;;;;;15.55;4.20;;;20.10;99.90;;;;;;4786636;29;20067;-95
2021/06/13 11:18:19;;;;;;;10.23;4.13;;;20.00;99.90;;;;;;4786895;30;20400;-96
2021/06/13 11:21:13;;;;;;;8.52;3.65;;;19.70;99.90;;;;;;4787039;30;20112;-94
2021/06/13 11:23:43;;;;;;;14.27;4.05;;;19.40;99.90;;;;;;4793305;29;20405;-95
2021/06/13 11:26:27;;;;;;;11.60;4.07;;;19.20;99.90;;;;;;4780834;29;20051;-92
2021/06/13 11:28:53;;;;;;;12.38;4.18;;;19.30;99.90;;;;;;4779538;29;20051;-93
2021/06/13 11:31:21;;;;;;;7.10;3.60;;;19.60;99.90;;;;;;4784577;30;20059;-95
2021/06/13 11:34:01;;;;;;;7.65;3.45;;;19.60;99.90;;;;;;4784144;30;20058;-93
2021/06/13 11:36:31;;;;;;;7.25;3.40;;;19.50;99.90;;;;;;4797980;29;20095;-92
2021/06/13 11:39:04;;;;;;;7.68;3.65;;;19.60;99.90;;;;;;4784780;29;20047;-92
2021/06/13 11:41:39;;;;;;;8.23;3.63;;;19.70;99.90;;;;;;4769722;30;20586;-90
2021/06/13 11:44:09;;;;;;;12.60;3.72;;;19.90;99.90;;;;;;4783163;29;20566;-91
2021/06/13 11:46:40;;;;;;;13.63;3.70;;;20.30;99.90;;;;;;4782061;30;20073;-91
2021/06/13 11:49:18;;;;;;;9.75;4.10;;;20.50;99.90;;;;;;4783665;30;20100;-92
2021/06/13 11:51:54;;;;;;;14.35;3.55;;;20.60;99.90;;;;;;4784209;29;20504;-91
2021/06/13 11:54:40;;;;;;;12.18;3.38;;;20.70;99.90;;;;;;4786528;29;20500;-94
2021/06/13 11:57:15;;;;;;;9.45;3.45;;;21.10;99.90;;;;;;4771572;30;20486;-94
2021/06/13 11:59:42;;;;;;;9.88;3.60;;;21.20;99.90;;;;;;4783971;30;20058;-89
2021/06/13 12:02:13;;;;;;;6.65;2.97;;;21.30;99.90;;;;;;4785306;29;20047;-89
2021/06/13 12:04:40;;;;;;;6.75;3.50;;;21.20;99.90;;;;;;4799127;29;20166;-90
2021/06/13 12:07:13;;;;;;;10.50;3.70;;;21.20;99.90;;;;;;4784368;30;20054;-89
2021/06/13 12:09:39;;;;;;;9.35;3.28;;;21.30;99.90;;;;;;4784409;29;20108;-90
2021/06/13 12:12:10;;;;;;;9.25;3.50;;;20.60;99.90;;;;;;4784922;30;20057;-89
2021/06/13 12:14:40;;;;;;;13.23;3.63;;;21.20;99.90;;;;;;4782687;30;20123;-91
2021/06/13 12:17:14;;;;;;;9.65;3.33;;;21.10;99.90;;;;;;4784362;30;20047;-90
2021/06/13 12:19:46;;;;;;;13.35;3.25;;;21.10;99.90;;;;;;4783734;30;20047;-90
2021/06/13 12:27:39;;;;;;;12.95;3.72;;;20.50;99.90;;;;;;4787725;30;20043;-91
2021/06/13 12:30:14;;;;;;;8.50;3.20;;;21.40;99.90;;;;;;4786777;30;20051;-92
2021/06/13 12:32:42;;;;;;;9.20;3.72;;;21.80;98.90;;;;;;4788764;29;20051;-93
2021/06/13 12:35:15;;;;;;;8.00;3.13;;;22.00;98.60;;;;;;4773716;30;20046;-91
2021/06/13 12:38:06;;;;;;;12.80;3.47;;;22.00;99.50;;;;;;4788184;30;20047;-91
2021/06/13 12:40:41;;;;;;;11.48;3.13;;;21.60;98.20;;;;;;4784118;30;20047;-91
2021/06/13 12:43:08;;;;;;;6.28;2.50;;;21.30;98.10;;;;;;4783004;30;20062;-89
2021/06/13 12:45:35;;;;;;;9.20;3.25;;;21.30;99.90;;;;;;4771774;30;20047;-90
2021/06/13 12:48:04;;;;;;;8.05;3.00;;;21.50;99.20;;;;;;4784583;30;20077;-91
2021/06/13 12:50:39;;;;;;;12.03;3.77;;;21.40;99.80;;;;;;4775448;30;20051;-90
2021/06/13 12:53:07;;;;;;;7.38;2.90;;;21.10;97.40;;;;;;4785518;30;20103;-89
2021/06/13 12:55:37;;;;;;;5.97;2.83;;;21.20;99.50;;;;;;4772397;30;20051;-90
2021/06/13 12:58:06;;;;;;;6.40;3.00;;;20.90;99.40;;;;;;4787448;30;20061;-89
2021/06/13 13:00:33;;;;;;;8.00;2.85;;;20.60;99.90;;;;;;4788417;29;20047;-89